createdAt,value
2023-04-19T06:45:21.659Z,102006.50
2023-04-19T06:47:48.047Z,102009.41
2023-04-19T06:50:14.392Z,102005.78
2023-04-19T06:52:40.757Z,101992.41
2023-04-19T06:55:07.460Z,101995.88
2023-04-19T06:57:33.820Z,101999.19
2023-04-19T07:00:00.212Z,101987.63
2023-04-19T07:02:26.756Z,101987.66
2023-04-19T07:04:53.321Z,101976.09
2023-04-19T07:07:19.789Z,101982.69
2023-04-19T07:09:46.187Z,101975.53
2023-04-19T07:12:12.574Z,101969.66
2023-04-19T07:14:38.946Z,101969.50
2023-04-19T07:17:06.150Z,101969.28
2023-04-19T07:19:33.024Z,101961.59
2023-04-19T07:21:59.431Z,101958.19
2023-04-19T07:24:27.211Z,101952.03
2023-04-19T07:26:53.577Z,101950.25
2023-04-19T07:29:22.365Z,101952.31
2023-04-19T07:31:48.809Z,101951.56
2023-04-19T07:34:15.454Z,101947.97
2023-04-19T07:36:42.218Z,101926.59
2023-04-19T07:39:09.012Z,101928.78
2023-04-19T07:41:36.302Z,101944.28
2023-04-19T07:44:03.098Z,101928.00
2023-04-19T07:46:29.585Z,101931.28
2023-04-19T07:48:56.153Z,101930.50
2023-04-19T07:51:24.571Z,101932.47
2023-04-19T07:53:50.950Z,101917.41
2023-04-19T07:56:17.346Z,101915.03
2023-04-19T07:58:45.158Z,101902.22
2023-04-19T08:01:13.079Z,101892.69
2023-04-19T08:03:39.625Z,101900.28
2023-04-19T08:06:09.621Z,101909.53
2023-04-19T08:08:36.733Z,101901.38
2023-04-19T08:11:03.275Z,101891.81
2023-04-19T08:13:30.111Z,101894.78
2023-04-19T08:18:26.616Z,101883.31
2023-04-19T08:20:53.757Z,101881.41
2023-04-19T08:23:31.758Z,101883.31
2023-04-19T08:26:04.407Z,101879.25
2023-04-19T08:28:31.254Z,101883.72
2023-04-19T08:30:59.344Z,101885.34
2023-04-19T08:33:25.707Z,101889.75
2023-04-19T08:35:52.042Z,101879.16
2023-04-19T08:38:18.408Z,101874.66
2023-04-19T08:40:48.342Z,101878.06
2023-04-19T08:43:17.477Z,101873.38
2023-04-19T08:45:46.564Z,101873.38
2023-04-19T08:48:15.573Z,101854.00
2023-04-19T08:51:00.221Z,101885.94
2023-04-19T08:53:31.132Z,101873.31
2023-04-19T08:58:45.648Z,101877.41
2023-04-19T09:01:30.909Z,101851.78
2023-04-19T09:04:17.407Z,101858.06
2023-04-19T09:06:48.379Z,101853.03
2023-04-19T09:09:38.781Z,101851.38
2023-04-19T09:12:20.493Z,101832.00
2023-04-19T09:15:00.626Z,101831.19
2023-04-19T09:17:29.277Z,101837.31
2023-04-19T09:19:55.764Z,101833.47
2023-04-19T09:22:22.142Z,101822.81
2023-04-19T09:27:26.186Z,101815.69
2023-04-19T09:29:54.446Z,101811.78
2023-04-19T09:32:21.614Z,101818.69
2023-04-19T09:34:56.347Z,101809.88
2023-04-19T09:37:39.080Z,101805.56
2023-04-19T09:40:23.604Z,101810.84
2023-04-19T09:48:03.265Z,101789.31
2023-04-19T09:50:31.818Z,101799.13
2023-04-19T09:52:59.658Z,101789.47
2023-04-19T09:55:28.697Z,101795.53
2023-04-19T09:57:56.763Z,101790.84
2023-04-19T10:00:23.406Z,101780.91
2023-04-19T10:02:57.733Z,101782.53
2023-04-19T10:05:25.530Z,101784.91
2023-04-19T10:07:55.694Z,101768.00
2023-04-19T10:10:40.569Z,101773.25
2023-04-19T10:13:19.699Z,101765.38
2023-04-19T10:15:52.767Z,101745.47
2023-04-19T10:18:23.963Z,101763.78
2023-04-19T10:21:00.015Z,101754.66
2023-04-19T10:23:27.114Z,101763.28
2023-04-19T10:25:57.952Z,101751.94
2023-04-19T10:28:24.594Z,101756.88
2023-04-19T10:31:05.853Z,101749.97
2023-04-19T10:33:37.570Z,101757.16
2023-04-19T10:36:04.628Z,101779.16
2023-04-19T10:38:46.351Z,101760.84
2023-04-19T10:41:16.986Z,101756.91
2023-04-19T10:44:12.350Z,101761.69
2023-04-19T10:46:40.736Z,101756.16
2023-04-19T10:49:09.666Z,101744.38
2023-04-19T10:51:44.250Z,101746.69
2023-04-19T10:54:38.142Z,101739.53
2023-04-19T10:57:06.457Z,101743.00
2023-04-19T10:59:37.054Z,101738.50
2023-04-19T11:02:25.086Z,101736.13
2023-04-19T11:04:51.619Z,101746.72
2023-04-19T11:07:18.486Z,101737.16
2023-04-19T11:09:46.944Z,101730.25
2023-04-19T11:12:15.021Z,101728.22
2023-04-19T11:14:43.633Z,101727.59
2023-04-19T11:17:27.818Z,101714.72
2023-04-19T11:19:56.590Z,101716.41
2023-04-19T11:22:33.751Z,101715.81
2023-04-19T11:25:19.021Z,101711.44
2023-04-19T11:27:53.000Z,101713.81
2023-04-19T11:30:28.320Z,101712.97
2023-04-19T11:32:56.349Z,101711.50
2023-04-19T11:35:29.044Z,101717.69
2023-04-19T11:37:56.771Z,101702.97
2023-04-19T11:40:25.922Z,101707.72
2023-04-19T11:42:57.340Z,101706.72
2023-04-19T11:45:29.842Z,101706.81
2023-04-19T11:47:58.356Z,101704.25
2023-04-19T11:50:40.873Z,101685.78
2023-04-19T11:53:16.507Z,101711.81
2023-04-19T11:55:44.289Z,101696.91
2023-04-19T11:58:28.672Z,101707.53
2023-04-19T12:01:06.940Z,101694.13
2023-04-19T12:03:41.832Z,101696.41
2023-04-19T12:06:12.631Z,101704.81
2023-04-19T12:08:48.903Z,101686.84
2023-04-19T12:11:16.792Z,101670.25
2023-04-19T12:13:44.515Z,101688.22
2023-04-19T12:16:12.069Z,101680.50
2023-04-19T12:18:45.508Z,101675.53
2023-04-19T12:21:31.569Z,101668.91
2023-04-19T12:23:59.980Z,101668.00
2023-04-19T12:26:28.547Z,101661.53
2023-04-19T12:28:55.827Z,101648.91
2023-04-19T12:31:22.429Z,101647.63
2023-04-19T12:33:49.025Z,101641.44
2023-04-19T12:36:15.517Z,101646.69
2023-04-19T12:38:42.082Z,101651.19
2023-04-19T12:41:08.441Z,101644.22
2023-04-19T12:43:34.853Z,101638.59
2023-04-19T12:46:01.544Z,101640.53
2023-04-19T12:48:28.325Z,101637.47
2023-04-19T12:50:55.010Z,101632.75
2023-04-19T12:53:22.769Z,101631.19
2023-04-19T12:55:49.722Z,101632.41
2023-04-19T12:58:20.976Z,101620.03
2023-04-19T13:00:47.473Z,101604.56
2023-04-19T13:03:13.991Z,101613.59
2023-04-19T13:05:40.461Z,101603.97
2023-04-19T13:08:06.873Z,101592.19
2023-04-19T13:10:33.278Z,101590.50
2023-04-19T13:13:00.700Z,101590.53
2023-04-19T13:15:28.545Z,101583.25
2023-04-19T13:17:55.312Z,101574.06
2023-04-19T13:20:21.774Z,101577.19
2023-04-19T13:22:48.150Z,101566.31
2023-04-19T13:25:14.546Z,101559.47
2023-04-19T13:27:40.968Z,101541.09
2023-04-19T13:30:08.135Z,101556.13
2023-04-19T13:32:34.548Z,101537.00
2023-04-19T13:35:01.083Z,101558.69
2023-04-19T13:37:27.520Z,101548.28
2023-04-19T13:39:56.880Z,101555.22
2023-04-19T13:42:30.622Z,101560.50
2023-04-19T13:44:56.985Z,101559.38
2023-04-19T13:47:23.378Z,101553.59
2023-04-19T13:49:52.175Z,101549.50
2023-04-19T13:52:19.754Z,101560.97
2023-04-19T13:54:46.155Z,101546.38
2023-04-19T13:57:12.540Z,101554.78
2023-04-19T13:59:38.921Z,101562.13
2023-04-19T14:02:05.606Z,101563.75
2023-04-19T14:04:32.640Z,101564.16
2023-04-19T14:06:59.020Z,101571.22
2023-04-19T14:09:25.847Z,101563.28
2023-04-19T14:11:52.227Z,101553.25
2023-04-19T14:14:18.839Z,101550.41
2023-04-19T14:16:45.363Z,101537.72
2023-04-19T14:19:11.791Z,101533.28
2023-04-19T14:21:38.134Z,101533.34
2023-04-19T14:24:04.903Z,101539.19
2023-04-19T14:26:31.261Z,101533.22
2023-04-19T14:28:57.641Z,101515.81
2023-04-19T14:31:24.014Z,101528.69
2023-04-19T14:33:50.489Z,101518.16
2023-04-19T14:36:16.853Z,101518.47
2023-04-19T14:38:43.214Z,101499.66
2023-04-19T14:41:09.593Z,101505.75
2023-04-19T14:43:36.129Z,101512.69
2023-04-19T14:46:02.535Z,101511.47
2023-04-19T14:48:29.303Z,101503.53
2023-04-19T14:50:55.781Z,101510.47
2023-04-19T14:53:22.258Z,101499.44
2023-04-19T14:55:48.646Z,101510.88
2023-04-19T14:58:15.229Z,101514.44
2023-04-19T15:00:41.579Z,101507.63
2023-04-19T15:03:08.056Z,101521.19
2023-04-19T15:05:36.361Z,101520.56
2023-04-19T15:08:02.869Z,101536.81
2023-04-19T15:10:29.245Z,101540.25
2023-04-19T15:12:55.683Z,101542.63
2023-04-19T15:15:22.086Z,101543.91
2023-04-19T15:17:48.705Z,101544.31
2023-04-19T15:20:15.306Z,101571.81
2023-04-19T15:22:41.917Z,101573.53
2023-04-19T15:25:08.589Z,101596.75
2023-04-19T15:27:35.015Z,101607.25
2023-04-19T15:30:01.418Z,101602.34
2023-04-19T15:32:30.445Z,101603.75
2023-04-19T15:34:56.837Z,101601.78
2023-04-19T15:37:25.568Z,101603.88
2023-04-19T15:39:51.935Z,101591.28
2023-04-19T15:42:18.325Z,101606.94
2023-04-19T15:44:44.698Z,101600.84
2023-04-19T15:47:11.042Z,101597.09
2023-04-19T15:49:37.454Z,101596.88
2023-04-19T15:52:03.880Z,101596.44
2023-04-19T15:54:30.775Z,101602.78
2023-04-19T15:56:57.240Z,101601.00
2023-04-19T15:59:23.608Z,101586.16
2023-04-19T16:01:50.065Z,101588.94
2023-04-19T16:04:16.828Z,101574.97
2023-04-19T16:06:43.297Z,101574.56
2023-04-19T16:09:09.668Z,101567.69
2023-04-19T16:11:36.069Z,101565.97
2023-04-19T16:14:02.487Z,101558.19
2023-04-19T16:16:32.884Z,101556.66
2023-04-19T16:18:59.310Z,101539.50
2023-04-19T16:21:28.441Z,101546.75
2023-04-19T16:23:56.069Z,101536.97
2023-04-19T16:26:22.658Z,101532.28
2023-04-19T16:28:49.244Z,101541.00
2023-04-19T16:31:15.635Z,101538.81
2023-04-19T16:33:42.061Z,101536.16
2023-04-19T16:36:08.407Z,101528.69
2023-04-19T16:38:34.769Z,101530.09
2023-04-19T16:41:03.083Z,101532.25
2023-04-19T16:43:29.454Z,101522.56
2023-04-19T16:45:55.846Z,101524.50
2023-04-19T16:48:22.351Z,101513.53
2023-04-19T16:50:49.426Z,101524.38
2023-04-19T16:53:15.856Z,101516.66
2023-04-19T16:55:42.208Z,101513.66
2023-04-19T16:58:08.582Z,101515.50
2023-04-19T17:00:35.037Z,101505.19
2023-04-19T17:03:01.520Z,101508.03
2023-04-19T17:05:28.040Z,101514.88
2023-04-19T17:07:56.579Z,101506.09
2023-04-19T17:10:23.304Z,101505.22
2023-04-19T17:12:49.791Z,101507.41
2023-04-19T17:15:16.385Z,101504.59
2023-04-19T17:17:42.856Z,101505.97
2023-04-19T17:20:09.647Z,101494.66
2023-04-19T17:22:36.033Z,101504.50
2023-04-19T17:25:02.495Z,101506.03
2023-04-19T17:27:28.865Z,101499.84
2023-04-19T17:29:55.236Z,101501.94
2023-04-19T17:32:21.650Z,101501.56
2023-04-19T17:34:48.028Z,101498.81
2023-04-19T17:37:14.399Z,101505.16
2023-04-19T17:39:40.818Z,101508.16
2023-04-19T17:42:07.176Z,101509.34
2023-04-19T17:44:33.513Z,101497.56
2023-04-19T17:47:00.017Z,101506.88
2023-04-19T17:49:27.078Z,101508.91
2023-04-19T17:51:54.950Z,101506.38
2023-04-19T17:54:21.322Z,101514.47
2023-04-19T17:56:47.688Z,101507.38
2023-04-19T17:59:14.149Z,101508.28
2023-04-19T18:01:40.883Z,101517.16
2023-04-19T18:04:07.560Z,101510.28
2023-04-19T18:06:34.093Z,101514.69
2023-04-19T18:09:00.640Z,101518.31
2023-04-19T18:11:28.506Z,101519.41
2023-04-19T18:13:55.420Z,101512.94
2023-04-19T18:16:21.864Z,101518.56
2023-04-19T18:18:48.276Z,101517.56
2023-04-19T18:21:14.649Z,101519.91
2023-04-19T18:23:41.025Z,101525.25
2023-04-19T18:26:07.432Z,101520.22
2023-04-19T18:28:35.431Z,101525.72
2023-04-19T18:31:01.839Z,101518.09
2023-04-19T18:33:28.238Z,101518.31
2023-04-19T18:35:54.595Z,101513.41
2023-04-19T18:38:21.108Z,101521.97
2023-04-19T18:40:47.591Z,101520.19
2023-04-19T18:43:13.965Z,101524.44
2023-04-19T18:45:40.479Z,101516.31
2023-04-19T18:48:07.110Z,101523.16
2023-04-19T18:50:34.164Z,101526.13
2023-04-19T18:53:00.564Z,101534.03
2023-04-19T18:55:26.958Z,101534.78
2023-04-19T18:57:53.364Z,101529.94
2023-04-19T19:00:21.599Z,101527.66
2023-04-19T19:02:48.086Z,101531.72
2023-04-19T19:05:15.851Z,101529.13
2023-04-19T19:07:42.748Z,101539.75
2023-04-19T19:10:19.326Z,101530.81
2023-04-19T19:12:47.924Z,101535.94
2023-04-19T19:15:14.472Z,101527.69
2023-04-19T19:17:41.148Z,101536.84
2023-04-19T19:20:08.069Z,101533.97
2023-04-19T19:22:34.903Z,101530.69
2023-04-19T19:25:01.341Z,101532.16
2023-04-19T19:27:28.088Z,101537.06
2023-04-19T19:29:54.640Z,101543.72
2023-04-19T19:32:21.293Z,101537.88
2023-04-19T19:37:17.405Z,101550.94
2023-04-19T19:39:44.905Z,101545.16
2023-04-19T19:42:15.133Z,101537.22
2023-04-19T19:44:41.491Z,101535.59
2023-04-19T19:47:10.324Z,101544.72
2023-04-19T19:49:51.966Z,101546.50
2023-04-19T19:52:23.667Z,101550.91
2023-04-19T19:54:50.098Z,101556.56
2023-04-19T19:59:54.305Z,101558.38
2023-04-19T20:02:22.197Z,101556.03
2023-04-19T20:04:49.109Z,101557.41
2023-04-19T20:09:45.340Z,101559.91
2023-04-19T20:12:13.447Z,101554.41
2023-04-19T20:14:40.286Z,101556.59
2023-04-19T20:17:06.680Z,101559.56
2023-04-19T20:19:33.229Z,101572.06
2023-04-19T20:22:00.481Z,101569.91
2023-04-19T20:24:27.112Z,101566.94
2023-04-19T20:26:53.493Z,101565.84
2023-04-19T20:29:19.898Z,101564.78
2023-04-19T20:31:46.342Z,101557.94
2023-04-19T20:34:12.767Z,101561.09
2023-04-19T20:36:40.225Z,101562.16
2023-04-19T20:39:09.621Z,101563.97
2023-04-19T20:41:36.374Z,101565.78
2023-04-19T20:44:03.010Z,101558.66
2023-04-19T20:46:29.601Z,101557.16
2023-04-19T20:48:56.300Z,101555.13
2023-04-19T20:51:22.669Z,101554.56
2023-04-19T20:53:49.077Z,101559.41
2023-04-19T20:56:15.496Z,101559.84
2023-04-19T20:58:41.953Z,101563.94
2023-04-19T21:01:08.624Z,101556.31
2023-04-19T21:03:35.145Z,101562.34
2023-04-19T21:06:01.648Z,101551.38
2023-04-19T21:08:28.016Z,101550.19
2023-04-19T21:10:54.369Z,101547.34
2023-04-19T21:13:20.734Z,101555.69
2023-04-19T21:15:47.119Z,101556.50
2023-04-19T21:18:13.521Z,101556.69
2023-04-19T21:20:39.931Z,101564.16
2023-04-19T21:23:06.697Z,101566.84
2023-04-19T21:25:33.042Z,101565.97
2023-04-19T21:27:59.429Z,101570.09
2023-04-19T21:30:25.796Z,101568.38
